Time;durP1;ratioP1;P1;durP2;ratioP2;P2;SDS_P1;SDS_P2;PMS_P1;PMS_P2;Temp;Humidity;BMP_temperature;BMP_pressure;BME280_temperature;BME280_humidity;BME280_pressure;Samples;Min_cycle;Max_cycle;Signal;HPM_P1;HPM_P2
2024/01/27 00:00:50;;;;;;;;;;;;;;;-0.08;79.28;95736.56;5033233;28;890;-59
2024/01/27 00:03:25;;;;;;;;;;;;;;;-0.16;78.53;95743.19;5032452;28;986;-59
2024/01/27 00:06:00;;;;;;;;;;;;;;;-0.62;79.76;95733.28;5033382;28;953;-58
2024/01/27 00:08:34;;;;;;;;;;;;;;;-0.57;80.23;95738.31;5033436;28;1271;-59
2024/01/27 00:11:10;;;;;;;;;;;;;;;-0.40;80.87;95731.25;5033147;28;978;-59
2024/01/27 00:13:44;;;;;;;;;;;;;;;-0.28;79.93;95748.16;5033213;28;1268;-59
2024/01/27 00:16:19;;;;;;;;;;;;;;;-0.09;80.37;95737.50;5033168;28;993;-58
2024/01/27 00:18:53;;;;;;;;;;;;;;;-0.23;78.75;95748.78;5033240;28;993;-58
2024/01/27 00:21:27;;;;;;;;;;;;;;;-0.29;79.04;95751.69;5033293;28;985;-58
2024/01/27 00:24:03;;;;;;;;;;;;;;;-0.20;78.91;95745.97;5033231;28;1637;-58
2024/01/27 00:26:35;;;;;;;;;;;;;;;-0.07;78.45;95740.06;5033264;28;1568;-58
2024/01/27 00:29:09;;;;;;;;;;;;;;;0.04;79.17;95737.72;5033072;28;984;-59
2024/01/27 00:31:44;;;;;;;;;;;;;;;0.11;78.91;95733.78;5033368;28;1024;-58
2024/01/27 00:34:18;;;;;;;;;;;;;;;0.19;78.96;95750.03;5032959;28;933;-58
2024/01/27 00:36:52;;;;;;;;;;;;;;;-0.27;78.03;95744.56;5033047;28;2005;-59
2024/01/27 00:39:24;;;;;;;;;;;;;;;-0.67;79.98;95746.66;5033076;28;2187;-58
2024/01/27 00:41:59;;;;;;;;;;;;;;;-0.54;80.07;95751.28;5033295;28;933;-58
2024/01/27 00:44:33;;;;;;;;;;;;;;;-0.43;80.57;95748.97;5032899;28;914;-59
2024/01/27 00:47:07;;;;;;;;;;;;;;;-0.19;80.76;95749.44;5032943;28;934;-59
2024/01/27 00:49:42;;;;;;;;;;;;;;;-0.58;80.34;95755.00;5033069;28;1011;-58
2024/01/27 00:52:14;;;;;;;;;;;;;;;-1.00;81.72;95750.06;5033455;28;1717;-58
2024/01/27 00:54:49;;;;;;;;;;;;;;;-1.26;82.14;95750.50;5052894;28;938;-59
2024/01/27 00:57:21;;;;;;;;;;;;;;;-1.19;83.51;95739.63;5052843;28;1981;-59
2024/01/27 00:59:55;;;;;;;;;;;;;;;-0.84;83.70;95729.13;5052827;28;952;-59
2024/01/27 01:02:29;;;;;;;;;;;;;;;-0.89;82.38;95741.66;5052709;28;944;-58
2024/01/27 01:05:04;;;;;;;;;;;;;;;-0.58;83.66;95744.50;5052895;28;946;-58
2024/01/27 01:07:37;;;;;;;;;;;;;;;-0.67;81.23;95725.63;5052662;28;1686;-58
2024/01/27 01:10:12;;;;;;;;;;;;;;;-0.82;82.62;95736.94;5052479;28;976;-58
2024/01/27 01:12:44;;;;;;;;;;;;;;;-0.63;82.56;95731.59;5052492;28;1995;-59
2024/01/27 01:15:18;;;;;;;;;;;;;;;-0.49;82.97;95733.53;5053381;28;982;-59
2024/01/27 01:17:52;;;;;;;;;;;;;;;-0.30;82.10;95725.53;5056257;28;1981;-59
2024/01/27 01:20:27;;;;;;;;;;;;;;;-0.73;80.20;95725.97;5056408;28;1005;-58
2024/01/27 01:23:01;;;;;;;;;;;;;;;-0.81;81.67;95742.09;5056301;28;968;-59
2024/01/27 01:25:35;;;;;;;;;;;;;;;-0.62;82.06;95739.41;5056080;28;938;-59
2024/01/27 01:28:10;;;;;;;;;;;;;;;-0.63;82.12;95747.34;5056139;28;953;-59
2024/01/27 01:30:43;;;;;;;;;;;;;;;-0.77;83.88;95755.94;5056109;28;1382;-59
2024/01/27 01:33:17;;;;;;;;;;;;;;;-0.62;82.86;95757.78;5047891;28;1098;-59
2024/01/27 01:35:51;;;;;;;;;;;;;;;-0.72;82.55;95748.69;5036293;28;938;-59
2024/01/27 01:38:26;;;;;;;;;;;;;;;-0.48;82.69;95762.31;5035977;28;1982;-58
2024/01/27 01:41:00;;;;;;;;;;;;;;;-0.89;82.01;95753.91;5036186;28;941;-58
2024/01/27 01:43:34;;;;;;;;;;;;;;;-0.96;82.15;95755.16;5035930;28;1645;-59
2024/01/27 01:46:08;;;;;;;;;;;;;;;-0.70;82.93;95744.19;5036246;28;956;-58
2024/01/27 01:48:43;;;;;;;;;;;;;;;-0.51;82.56;95753.75;5036052;28;942;-58
2024/01/27 01:51:17;;;;;;;;;;;;;;;-0.67;82.91;95738.78;5035967;28;914;-58
2024/01/27 01:53:54;;;;;;;;;;;;;;;-0.50;83.80;95747.56;5050081;28;1198;-59
2024/01/27 01:56:28;;;;;;;;;;;;;;;-0.37;82.96;95738.13;5055639;28;1906;-58
2024/01/27 01:59:03;;;;;;;;;;;;;;;-0.22;82.53;95732.06;5055650;28;1009;-58
2024/01/27 02:01:37;;;;;;;;;;;;;;;-0.30;82.09;95723.72;5055789;28;926;-58
2024/01/27 02:04:11;;;;;;;;;;;;;;;-0.49;82.19;95718.59;5055325;28;926;-58
2024/01/27 02:06:44;;;;;;;;;;;;;;;-0.70;82.78;95723.19;5055166;28;1351;-58
2024/01/27 02:09:18;;;;;;;;;;;;;;;-0.42;82.52;95708.59;5055258;28;1039;-58
2024/01/27 02:11:52;;;;;;;;;;;;;;;-0.22;81.38;95708.41;5054531;28;889;-58
2024/01/27 02:14:27;;;;;;;;;;;;;;;0.03;81.68;95709.72;5054895;28;1236;-58
2024/01/27 02:17:02;;;;;;;;;;;;;;;0.18;81.65;95719.38;5055104;28;1938;-58
2024/01/27 02:19:36;;;;;;;;;;;;;;;0.22;82.12;95720.06;5055483;28;941;-58
2024/01/27 02:22:10;;;;;;;;;;;;;;;0.02;81.31;95717.66;5054979;28;926;-58
2024/01/27 02:24:41;;;;;;;;;;;;;;;-0.24;83.43;95712.88;5055160;28;1462;-58
2024/01/27 02:27:15;;;;;;;;;;;;;;;-0.26;82.41;95709.50;5053871;28;997;-58
2024/01/27 02:29:50;;;;;;;;;;;;;;;-0.24;82.85;95699.75;5055202;28;953;-57
2024/01/27 02:32:22;;;;;;;;;;;;;;;-0.03;82.22;95703.00;5054633;28;1547;-58
2024/01/27 02:34:56;;;;;;;;;;;;;;;0.25;82.10;95698.00;5054891;28;949;-58
2024/01/27 02:37:31;;;;;;;;;;;;;;;0.23;81.95;95695.47;5054598;28;2006;-58
2024/01/27 02:40:05;;;;;;;;;;;;;;;0.24;82.56;95686.63;5055061;28;986;-58
2024/01/27 02:42:43;;;;;;;;;;;;;;;0.15;84.59;95689.78;5054765;28;926;-58
2024/01/27 02:45:18;;;;;;;;;;;;;;;0.25;82.64;95696.25;5054585;28;937;-58
2024/01/27 02:47:50;;;;;;;;;;;;;;;0.24;83.11;95702.41;5054809;28;1433;-58
2024/01/27 02:50:25;;;;;;;;;;;;;;;0.43;82.83;95706.66;5054405;28;1028;-58
2024/01/27 02:52:59;;;;;;;;;;;;;;;0.53;82.12;95705.19;5054568;28;1205;-59
2024/01/27 02:55:33;;;;;;;;;;;;;;;0.19;84.41;95707.94;5054620;28;970;-59
2024/01/27 02:58:08;;;;;;;;;;;;;;;0.26;84.16;95697.91;5054630;28;1910;-58
2024/01/27 03:00:42;;;;;;;;;;;;;;;0.42;82.84;95684.78;5054321;28;940;-58
2024/01/27 03:03:16;;;;;;;;;;;;;;;0.39;83.02;95700.72;5054405;28;929;-59
2024/01/27 03:05:50;;;;;;;;;;;;;;;0.50;82.26;95700.97;5054550;28;946;-59
2024/01/27 03:08:23;;;;;;;;;;;;;;;0.31;83.12;95709.03;5054236;28;989;-58
2024/01/27 03:10:57;;;;;;;;;;;;;;;0.42;83.02;95711.09;5054128;28;934;-58
2024/01/27 03:13:31;;;;;;;;;;;;;;;0.38;82.60;95713.03;5053897;28;1109;-59
2024/01/27 03:16:08;;;;;;;;;;;;;;;0.44;82.38;95717.09;5052980;28;926;-58
2024/01/27 03:18:43;;;;;;;;;;;;;;;0.58;81.36;95711.91;5054130;28;1910;-59
2024/01/27 03:21:17;;;;;;;;;;;;;;;0.54;82.54;95706.91;5053897;28;948;-59
2024/01/27 03:23:51;;;;;;;;;;;;;;;0.47;83.38;95701.13;5053000;28;1002;-59
2024/01/27 03:26:26;;;;;;;;;;;;;;;0.42;82.93;95694.44;5054050;28;926;-58
2024/01/27 03:28:58;;;;;;;;;;;;;;;0.52;83.77;95696.47;5053588;28;1515;-59
2024/01/27 03:31:34;;;;;;;;;;;;;;;0.60;83.99;95701.28;5053943;28;998;-59
2024/01/27 03:34:08;;;;;;;;;;;;;;;0.81;83.62;95701.00;5053781;28;1004;-59
2024/01/27 03:36:42;;;;;;;;;;;;;;;0.77;83.93;95697.69;5053569;28;2023;-58
2024/01/27 03:39:17;;;;;;;;;;;;;;;0.63;84.09;95700.28;5053384;28;986;-57
2024/01/27 03:41:51;;;;;;;;;;;;;;;0.56;84.33;95708.50;5053846;28;922;-58
2024/01/27 03:44:25;;;;;;;;;;;;;;;0.51;84.82;95707.94;5053678;28;922;-58
2024/01/27 03:46:59;;;;;;;;;;;;;;;0.48;84.57;95705.47;5053506;28;981;-58
2024/01/27 03:49:34;;;;;;;;;;;;;;;0.63;83.79;95700.28;5053367;28;989;-59
2024/01/27 03:52:06;;;;;;;;;;;;;;;0.56;84.06;95690.09;5053300;28;1666;-58
2024/01/27 03:54:40;;;;;;;;;;;;;;;0.49;84.19;95686.09;5033812;28;912;-59
2024/01/27 03:57:16;;;;;;;;;;;;;;;0.53;83.79;95698.19;5033566;28;1906;-58
2024/01/27 03:59:49;;;;;;;;;;;;;;;0.69;84.24;95681.50;5033664;28;1266;-58
2024/01/27 04:02:24;;;;;;;;;;;;;;;0.70;83.52;95688.44;5033357;28;1009;-59
2024/01/27 04:04:58;;;;;;;;;;;;;;;0.82;83.57;95685.13;5033329;28;1147;-59
2024/01/27 04:07:32;;;;;;;;;;;;;;;0.96;83.27;95679.06;5033161;28;945;-59
2024/01/27 04:10:07;;;;;;;;;;;;;;;0.96;83.63;95679.06;5033440;28;957;-58
2024/01/27 04:12:42;;;;;;;;;;;;;;;0.88;84.09;95678.66;5033328;28;1209;-59
2024/01/27 04:15:17;;;;;;;;;;;;;;;0.93;84.11;95677.47;5033441;28;1001;-59
2024/01/27 04:17:51;;;;;;;;;;;;;;;0.78;84.69;95686.25;5031931;28;1906;-59
2024/01/27 04:20:25;;;;;;;;;;;;;;;0.68;84.88;95688.53;5033335;28;1000;-58
2024/01/27 04:23:00;;;;;;;;;;;;;;;0.82;84.89;95690.41;5033318;28;1020;-59
2024/01/27 04:25:34;;;;;;;;;;;;;;;0.85;84.30;95686.72;5033304;28;1009;-58
2024/01/27 04:28:10;;;;;;;;;;;;;;;0.93;85.36;95677.47;5033023;28;1792;-59
2024/01/27 04:30:44;;;;;;;;;;;;;;;0.93;84.70;95673.94;5033086;28;1025;-59
2024/01/27 04:33:18;;;;;;;;;;;;;;;0.91;84.93;95678.47;5033086;28;949;-59
2024/01/27 04:35:53;;;;;;;;;;;;;;;0.89;85.17;95681.22;5037366;28;1087;-59
2024/01/27 04:38:27;;;;;;;;;;;;;;;0.82;85.52;95681.66;5052725;28;1971;-59
2024/01/27 04:41:02;;;;;;;;;;;;;;;0.77;86.33;95666.13;5082842;28;941;-59
2024/01/27 04:43:36;;;;;;;;;;;;;;;0.93;85.99;95677.47;5083055;28;949;-59
2024/01/27 04:46:09;;;;;;;;;;;;;;;0.82;85.86;95665.88;5052937;28;917;-58
2024/01/27 04:48:43;;;;;;;;;;;;;;;0.89;85.84;95677.72;5052618;28;1082;-59
2024/01/27 04:51:17;;;;;;;;;;;;;;;0.82;86.25;95673.75;5056498;28;1849;-59
2024/01/27 04:53:52;;;;;;;;;;;;;;;0.62;87.88;95680.16;5042756;28;1206;-58
2024/01/27 04:56:26;;;;;;;;;;;;;;;0.76;87.93;95677.59;5036643;28;981;-57
2024/01/27 04:58:59;;;;;;;;;;;;;;;0.61;88.73;95679.31;5036855;28;1524;-58
2024/01/27 05:01:33;;;;;;;;;;;;;;;0.40;90.89;95689.28;5036654;28;1793;-58
2024/01/27 05:04:07;;;;;;;;;;;;;;;0.62;89.85;95690.69;5036903;28;1001;-58
2024/01/27 05:06:48;;;;;;;;;;;;;;;0.72;89.19;95700.59;5036848;28;1115;-57
2024/01/27 05:09:22;;;;;;;;;;;;;;;0.66;89.55;95700.94;5036602;28;989;-56
2024/01/27 05:11:57;;;;;;;;;;;;;;;0.52;89.66;95706.16;5036575;28;952;-57
2024/01/27 05:14:31;;;;;;;;;;;;;;;0.54;89.87;95705.13;5036188;28;1156;-58
2024/01/27 05:17:06;;;;;;;;;;;;;;;0.63;89.47;95703.75;5036606;28;1926;-59
2024/01/27 05:19:40;;;;;;;;;;;;;;;0.58;89.83;95706.63;5036505;28;1156;-60
2024/01/27 05:22:14;;;;;;;;;;;;;;;0.74;89.54;95703.13;5036226;28;918;-60
2024/01/27 05:24:49;;;;;;;;;;;;;;;0.69;89.01;95703.41;5036242;28;923;-58
2024/01/27 05:27:23;;;;;;;;;;;;;;;0.73;89.35;95711.97;5036356;28;942;-58
2024/01/27 05:29:57;;;;;;;;;;;;;;;0.76;89.32;95704.75;5038319;28;1229;-58
2024/01/27 05:32:29;;;;;;;;;;;;;;;0.80;88.52;95721.22;5056215;28;1507;-57
2024/01/27 05:35:03;;;;;;;;;;;;;;;0.87;89.48;95724.34;5055531;28;1564;-57
2024/01/27 05:37:35;;;;;;;;;;;;;;;0.84;88.87;95725.38;5054740;28;1918;-58
2024/01/27 05:40:09;;;;;;;;;;;;;;;1.00;88.84;95733.22;5055527;28;1786;-57
2024/01/27 05:42:42;;;;;;;;;;;;;;;0.85;89.08;95718.31;5055521;28;1514;-58
2024/01/27 05:45:15;;;;;;;;;;;;;;;0.84;89.03;95735.06;5085957;28;1030;-58
2024/01/27 05:47:46;;;;;;;;;;;;;;;0.92;89.57;95731.03;5055234;28;1530;-58
2024/01/27 05:50:18;;;;;;;;;;;;;;;1.04;88.31;95740.00;5054279;28;1596;-58
2024/01/27 05:52:50;;;;;;;;;;;;;;;1.14;88.29;95730.66;5050113;28;1545;-57
2024/01/27 05:55:22;;;;;;;;;;;;;;;0.99;89.00;95731.56;5035816;28;1511;-58
2024/01/27 05:57:56;;;;;;;;;;;;;;;0.92;89.75;95732.84;5036248;28;1911;-57
2024/01/27 06:00:28;;;;;;;;;;;;;;;0.86;90.06;95739.31;5035051;28;1390;-58
2024/01/27 06:02:59;;;;;;;;;;;;;;;0.90;89.15;95764.50;5035219;28;1466;-58
2024/01/27 06:05:31;;;;;;;;;;;;;;;0.90;90.63;95750.50;5035541;28;1648;-57
2024/01/27 06:08:04;;;;;;;;;;;;;;;0.86;90.10;95741.09;5052090;28;1810;-57
2024/01/27 06:10:37;;;;;;;;;;;;;;;0.99;89.58;95768.41;5055346;28;2361;-57
2024/01/27 06:13:07;;;;;;;;;;;;;;;1.03;88.69;95750.66;5054767;28;1320;-56
2024/01/27 06:15:53;;;;;;;;;;;;;;;1.14;88.33;95751.72;5054744;28;1563;-57
2024/01/27 06:21:47;;;;;;;;;;;;;;;1.08;89.62;95757.38;5055439;28;684;-57
2024/01/27 06:24:19;;;;;;;;;;;;;;;1.04;89.82;95773.41;5055306;28;1546;-57
2024/01/27 06:26:52;;;;;;;;;;;;;;;1.20;89.78;95790.03;5055106;28;1467;-57
2024/01/27 06:29:26;;;;;;;;;;;;;;;1.10;89.64;95788.84;5055139;28;1598;-57
2024/01/27 06:32:00;;;;;;;;;;;;;;;1.24;88.93;95796.81;5055202;28;1490;-57
2024/01/27 06:34:33;;;;;;;;;;;;;;;1.27;88.17;95799.28;5055031;28;1444;-57
2024/01/27 06:37:05;;;;;;;;;;;;;;;1.24;90.20;95806.53;5053510;28;2498;-57
2024/01/27 06:39:38;;;;;;;;;;;;;;;1.19;88.83;95792.75;5053839;28;1440;-57
2024/01/27 06:42:10;;;;;;;;;;;;;;;1.29;86.90;95812.34;5054709;28;1483;-56
2024/01/27 06:44:42;;;;;;;;;;;;;;;1.12;89.21;95811.56;5054747;28;1476;-57
2024/01/27 06:47:14;;;;;;;;;;;;;;;1.08;89.08;95819.69;5054624;28;1437;-57
2024/01/27 06:49:46;;;;;;;;;;;;;;;1.02;89.21;95826.16;5054373;28;1627;-57
2024/01/27 06:52:20;;;;;;;;;;;;;;;0.93;89.48;95830.19;5054451;28;1469;-57
2024/01/27 06:54:52;;;;;;;;;;;;;;;1.09;88.96;95824.88;5053618;28;1603;-57
2024/01/27 06:57:24;;;;;;;;;;;;;;;1.04;88.25;95818.19;5054326;28;2007;-57
2024/01/27 06:59:56;;;;;;;;;;;;;;;1.08;87.20;95812.66;5054216;28;1564;-57
2024/01/27 07:02:28;;;;;;;;;;;;;;;1.06;88.74;95824.22;5054440;28;1518;-56
2024/01/27 07:05:00;;;;;;;;;;;;;;;1.13;87.60;95818.50;5054382;28;1510;-57
2024/01/27 07:07:32;;;;;;;;;;;;;;;1.15;87.73;95824.53;5052833;28;1558;-56
2024/01/27 07:10:07;;;;;;;;;;;;;;;1.22;87.16;95811.03;5054232;28;1485;-56
2024/01/27 07:12:41;;;;;;;;;;;;;;;1.07;88.35;95823.28;5052589;28;1459;-57
2024/01/27 07:15:13;;;;;;;;;;;;;;;0.94;88.83;95791.53;5054128;28;1464;-56
2024/01/27 07:17:45;;;;;;;;;;;;;;;0.98;88.80;95793.03;5053916;28;2007;-57
2024/01/27 07:20:16;;;;;;;;;;;;;;;1.02;89.21;95794.56;5053915;28;1466;-56
2024/01/27 07:22:48;;;;;;;;;;;;;;;1.20;88.53;95802.38;5053974;28;1462;-57
2024/01/27 07:25:20;;;;;;;;;;;;;;;1.19;88.79;95793.59;5052867;28;1571;-56
2024/01/27 07:27:52;;;;;;;;;;;;;;;1.24;88.31;95782.81;5054068;28;1445;-57
2024/01/27 07:30:24;;;;;;;;;;;;;;;1.41;88.04;95784.47;5053760;28;1366;-57
2024/01/27 07:32:57;;;;;;;;;;;;;;;1.49;87.65;95780.44;5052814;28;1507;-57
2024/01/27 07:35:31;;;;;;;;;;;;;;;1.61;85.71;95770.94;5053882;28;1784;-57
2024/01/27 07:38:03;;;;;;;;;;;;;;;3.50;79.82;95776.66;5053665;28;1914;-57
2024/01/27 07:40:37;;;;;;;;;;;;;;;9.77;54.25;95805.31;5053783;28;1552;-57
2024/01/27 07:43:09;;;;;;;;;;;;;;;11.91;44.88;95830.50;5053849;28;1493;-58
2024/01/27 07:45:41;;;;;;;;;;;;;;;11.50;44.69;95848.81;5053866;28;1481;-58
2024/01/27 07:48:13;;;;;;;;;;;;;;;13.98;40.36;95859.28;5053669;28;1598;-58
2024/01/27 07:50:48;;;;;;;;;;;;;;;11.56;43.39;95853.56;5053673;28;1482;-58
2024/01/27 07:53:20;;;;;;;;;;;;;;;11.59;45.31;95842.56;5043745;28;1433;-57
2024/01/27 07:55:53;;;;;;;;;;;;;;;9.70;47.88;95844.25;5050570;28;1551;-58
2024/01/27 07:58:21;;;;;;;;;;;;;;;7.22;54.95;95833.34;5053388;28;1985;-58
2024/01/27 08:00:47;;;;;;;;;;;;;;;5.89;61.74;95815.38;5053629;28;1244;-57
2024/01/27 08:03:13;;;;;;;;;;;;;;;5.11;66.30;95806.94;5053264;28;1049;-57
2024/01/27 08:05:39;;;;;;;;;;;;;;;6.50;63.60;95815.97;5053503;28;1025;-57
2024/01/27 08:08:05;;;;;;;;;;;;;;;5.79;63.52;95809.91;5053191;28;1112;-57
2024/01/27 08:10:31;;;;;;;;;;;;;;;5.31;66.64;95816.06;5053507;28;1045;-58
2024/01/27 08:12:57;;;;;;;;;;;;;;;4.68;68.07;95789.66;5052972;28;1105;-59
2024/01/27 08:15:23;;;;;;;;;;;;;;;5.19;67.40;95812.53;5053324;28;1079;-58
2024/01/27 08:17:49;;;;;;;;;;;;;;;5.46;67.76;95814.09;5053249;28;1989;-59
2024/01/27 08:20:15;;;;;;;;;;;;;;;5.24;68.15;95825.47;5053006;28;1038;-59
2024/01/27 08:22:41;;;;;;;;;;;;;;;4.97;69.18;95828.28;5053188;28;1044;-59
2024/01/27 08:25:07;;;;;;;;;;;;;;;4.87;69.57;95836.88;5052567;28;1027;-59
2024/01/27 08:27:33;;;;;;;;;;;;;;;4.47;70.94;95852.94;5053331;28;1011;-58
2024/01/27 08:29:59;;;;;;;;;;;;;;;4.38;72.30;95863.31;5053088;28;1107;-59
2024/01/27 08:32:26;;;;;;;;;;;;;;;4.28;73.70;95869.25;5053119;28;1095;-58
2024/01/27 08:34:52;;;;;;;;;;;;;;;4.07;72.14;95874.22;5053055;28;1049;-58
2024/01/27 08:37:19;;;;;;;;;;;;;;;3.96;73.79;95876.72;5053100;28;1886;-58
2024/01/27 08:39:45;;;;;;;;;;;;;;;3.72;73.62;95877.44;5053329;28;961;-58
2024/01/27 08:42:11;;;;;;;;;;;;;;;3.58;74.95;95879.28;5052957;28;1111;-58
2024/01/27 08:44:38;;;;;;;;;;;;;;;3.54;75.78;95872.50;5053272;28;997;-58
2024/01/27 08:47:04;;;;;;;;;;;;;;;3.80;75.61;95873.44;5053187;28;973;-58
2024/01/27 08:49:30;;;;;;;;;;;;;;;4.05;74.38;95865.53;5053125;28;977;-58
2024/01/27 08:51:56;;;;;;;;;;;;;;;4.30;74.28;95866.50;5052899;28;1019;-58
2024/01/27 08:54:22;;;;;;;;;;;;;;;4.48;73.63;95861.75;5034597;28;1161;-58
2024/01/27 08:56:48;;;;;;;;;;;;;;;4.70;72.79;95871.69;5033273;28;1910;-58
2024/01/27 08:59:14;;;;;;;;;;;;;;;4.78;71.48;95876.44;5033166;28;1049;-59
2024/01/27 09:01:41;;;;;;;;;;;;;;;4.86;71.69;95880.25;5032939;28;1029;-58
2024/01/27 09:04:09;;;;;;;;;;;;;;;4.94;70.93;95877.06;5032903;28;969;-59
2024/01/27 09:06:35;;;;;;;;;;;;;;;5.24;69.49;95868.72;5032754;28;1013;-58
2024/01/27 09:09:01;;;;;;;;;;;;;;;5.39;69.94;95861.47;5032900;28;1123;-58
2024/01/27 09:11:30;;;;;;;;;;;;;;;5.37;70.03;95873.13;5033060;28;1048;-58
2024/01/27 09:13:56;;;;;;;;;;;;;;;5.48;69.81;95849.31;5032715;28;1067;-59
2024/01/27 09:16:23;;;;;;;;;;;;;;;5.88;68.57;95806.56;5032668;28;1052;-59
2024/01/27 09:18:52;;;;;;;;;;;;;;;6.25;66.92;95815.22;5032551;28;2007;-59
2024/01/27 09:21:20;;;;;;;;;;;;;;;6.30;66.27;95814.88;5032853;28;966;-59
2024/01/27 09:23:47;;;;;;;;;;;;;;;6.31;66.60;95826.34;5032858;28;1059;-59
2024/01/27 09:26:13;;;;;;;;;;;;;;;6.32;66.17;95839.50;5032501;28;1099;-59
2024/01/27 09:28:43;;;;;;;;;;;;;;;6.25;66.56;95830.31;5032755;28;1096;-61
2024/01/27 09:31:12;;;;;;;;;;;;;;;6.19;66.68;95830.81;5032758;28;1060;-57
2024/01/27 09:33:38;;;;;;;;;;;;;;;6.25;66.46;95830.31;5032644;28;1092;-58
2024/01/27 09:36:04;;;;;;;;;;;;;;;6.25;65.71;95831.16;5034457;28;1039;-58
2024/01/27 09:38:30;;;;;;;;;;;;;;;6.38;64.96;95841.69;5035970;28;1979;-58
2024/01/27 09:40:56;;;;;;;;;;;;;;;6.34;65.81;95842.91;5036333;28;985;-58
2024/01/27 09:43:24;;;;;;;;;;;;;;;6.29;65.01;95831.78;5036085;28;1052;-58
2024/01/27 09:45:50;;;;;;;;;;;;;;;6.40;63.44;95837.09;5036072;28;1060;-57
2024/01/27 09:48:17;;;;;;;;;;;;;;;6.38;63.03;95828.41;5035822;28;1108;-58
2024/01/27 09:50:45;;;;;;;;;;;;;;;6.49;60.63;95829.38;5036075;28;958;-59
2024/01/27 09:53:12;;;;;;;;;;;;;;;6.66;61.67;95828.94;5043742;28;1206;-60
2024/01/27 09:55:38;;;;;;;;;;;;;;;6.73;61.60;95826.63;5054071;28;1020;-60
2024/01/27 09:58:04;;;;;;;;;;;;;;;6.83;62.14;95824.94;5055837;28;1910;-59
2024/01/27 10:00:31;;;;;;;;;;;;;;;6.88;61.38;95821.91;5055470;28;1029;-60
2024/01/27 10:02:57;;;;;;;;;;;;;;;6.88;61.63;95827.22;5055388;28;1046;-59
2024/01/27 10:05:24;;;;;;;;;;;;;;;6.91;61.69;95832.31;5055372;28;1041;-60
2024/01/27 10:07:50;;;;;;;;;;;;;;;6.92;62.24;95849.94;5055400;28;1032;-59
2024/01/27 10:10:16;;;;;;;;;;;;;;;6.94;61.30;95840.00;5055706;28;1223;-57
2024/01/27 10:12:43;;;;;;;;;;;;;;;7.01;61.11;95850.03;5055444;28;1090;-59
2024/01/27 10:15:19;;;;;;;;;;;;;;;6.97;60.81;95847.75;5055440;28;1012;-59
2024/01/27 10:17:45;;;;;;;;;;;;;;;6.82;61.80;95842.69;5055362;28;1965;-58
2024/01/27 10:20:13;;;;;;;;;;;;;;;6.93;61.27;95843.66;5054738;28;1091;-59
2024/01/27 10:22:40;;;;;;;;;;;;;;;6.97;60.97;95850.41;5054896;28;1307;-60
2024/01/27 10:25:07;;;;;;;;;;;;;;;7.00;61.26;95850.16;5054920;28;1318;-60
2024/01/27 10:27:34;;;;;;;;;;;;;;;6.97;61.28;95848.59;5054552;28;1295;-59
2024/01/27 10:29:59;;;;;;;;;;;;;;;6.96;61.04;95851.38;5054840;28;1295;-60
2024/01/27 10:32:25;;;;;;;;;;;;;;;7.04;61.06;95867.59;5055026;28;1445;-59
2024/01/27 10:35:01;;;;;;;;;;;;;;;7.20;60.61;95865.38;5053646;28;1260;-59
2024/01/27 10:37:27;;;;;;;;;;;;;;;7.16;60.31;95861.28;5051771;28;1914;-60
2024/01/27 10:40:19;;;;;;;;;;;;;;;7.15;60.22;95880.00;5054420;28;1295;-59
2024/01/27 10:42:45;;;;;;;;;;;;;;;7.11;59.76;95875.91;5049023;28;1262;-59
2024/01/27 10:45:12;;;;;;;;;;;;;;;7.02;61.05;95890.78;5051751;28;1234;-59
2024/01/27 10:47:38;;;;;;;;;;;;;;;6.97;61.10;95887.66;5085729;28;1349;-60
2024/01/27 10:50:08;;;;;;;;;;;;;;;6.95;61.52;95897.56;5054346;28;1240;-60
2024/01/27 10:52:37;;;;;;;;;;;;;;;6.84;62.04;95898.38;5050661;28;1319;-59
2024/01/27 10:55:06;;;;;;;;;;;;;;;6.82;62.50;95911.78;5053114;28;1273;-59
2024/01/27 10:57:33;;;;;;;;;;;;;;;6.80;62.92;95919.03;5054240;28;1995;-59
2024/01/27 11:00:00;;;;;;;;;;;;;;;6.70;63.68;95919.91;5054275;28;1224;-59
2024/01/27 11:02:28;;;;;;;;;;;;;;;6.66;63.69;95924.59;5054079;28;1366;-59
2024/01/27 11:04:54;;;;;;;;;;;;;;;6.72;64.16;95915.31;5054002;28;1232;-61
2024/01/27 11:07:23;;;;;;;;;;;;;;;6.79;64.49;95924.47;5054106;28;1287;-62
2024/01/27 11:09:52;;;;;;;;;;;;;;;6.86;64.84;95927.50;5053777;28;1358;-62
2024/01/27 11:12:19;;;;;;;;;;;;;;;6.93;63.83;95934.06;5053637;28;1299;-61
2024/01/27 11:14:46;;;;;;;;;;;;;;;6.88;64.44;95931.72;5053615;28;1276;-61
2024/01/27 11:17:12;;;;;;;;;;;;;;;6.92;64.53;95942.97;5050901;28;2048;-62
2024/01/27 11:19:39;;;;;;;;;;;;;;;6.83;64.79;95948.06;5053988;28;1287;-61
2024/01/27 11:22:05;;;;;;;;;;;;;;;6.81;63.64;95943.81;5054172;28;968;-59
2024/01/27 11:24:31;;;;;;;;;;;;;;;6.83;64.34;95933.94;5053947;28;1024;-60
2024/01/27 11:27:04;;;;;;;;;;;;;;;6.98;63.61;95942.50;5053740;28;1036;-60
2024/01/27 11:29:32;;;;;;;;;;;;;;;7.12;63.58;95934.28;5054047;28;980;-59
2024/01/27 11:32:02;;;;;;;;;;;;;;;7.11;63.01;95935.25;5053961;28;1007;-60
2024/01/27 11:34:40;;;;;;;;;;;;;;;7.04;63.24;95942.03;5054071;28;1031;-61
2024/01/27 11:37:12;;;;;;;;;;;;;;;7.03;63.05;95957.13;5053692;28;1906;-61
2024/01/27 11:39:38;;;;;;;;;;;;;;;6.90;63.48;95955.56;5053901;28;961;-60
2024/01/27 11:42:14;;;;;;;;;;;;;;;7.17;63.50;95958.72;5053404;28;1129;-58
2024/01/27 11:44:41;;;;;;;;;;;;;;;7.42;61.88;95954.13;5051161;28;1230;-59
2024/01/27 11:47:14;;;;;;;;;;;;;;;7.51;60.89;95953.41;5053513;28;1307;-59
2024/01/27 11:49:40;;;;;;;;;;;;;;;7.96;59.86;95961.28;5049804;28;1282;-59
2024/01/27 11:52:06;;;;;;;;;;;;;;;8.07;59.14;95962.22;5052279;28;1256;-59
2024/01/27 11:54:32;;;;;;;;;;;;;;;8.08;58.70;95969.25;5052730;28;1225;-59
2024/01/27 11:56:58;;;;;;;;;;;;;;;8.09;58.85;95958.47;5053071;28;1910;-59
2024/01/27 11:59:24;;;;;;;;;;;;;;;8.36;58.56;95968.66;5053129;28;1215;-59
2024/01/27 12:01:50;;;;;;;;;;;;;;;8.28;57.32;95971.09;5052900;28;1283;-60
2024/01/27 12:04:18;;;;;;;;;;;;;;;7.98;57.64;95969.16;5052777;28;1216;-60
2024/01/27 12:06:44;;;;;;;;;;;;;;;7.69;56.93;95963.53;5053159;28;1240;-60
2024/01/27 12:09:11;;;;;;;;;;;;;;;7.59;58.16;95958.09;5052854;28;1236;-60
2024/01/27 12:11:39;;;;;;;;;;;;;;;7.50;58.27;95948.19;5053114;28;1229;-60
2024/01/27 12:14:05;;;;;;;;;;;;;;;7.56;58.64;95937.88;5052701;28;1240;-60
2024/01/27 12:16:31;;;;;;;;;;;;;;;7.63;57.75;95938.25;5052845;28;1268;-59
2024/01/27 12:18:57;;;;;;;;;;;;;;;7.56;57.72;95932.56;5052919;28;1979;-60
2024/01/27 12:21:23;;;;;;;;;;;;;;;7.67;57.30;95930.88;5052572;28;1216;-60
2024/01/27 12:23:49;;;;;;;;;;;;;;;7.65;57.35;95922.16;5052877;28;1307;-60
2024/01/27 12:26:15;;;;;;;;;;;;;;;7.52;56.04;95930.28;5049746;28;1072;-59
2024/01/27 12:28:45;;;;;;;;;;;;;;;7.31;57.09;95927.53;5052844;28;1220;-59
2024/01/27 12:31:11;;;;;;;;;;;;;;;7.19;57.02;95916.91;5052387;28;1244;-60
2024/01/27 12:33:37;;;;;;;;;;;;;;;7.18;55.81;95923.16;5052518;28;1220;-60
2024/01/27 12:36:06;;;;;;;;;;;;;;;7.17;55.40;95925.94;5052716;28;1282;-60
2024/01/27 12:38:32;;;;;;;;;;;;;;;7.34;55.50;95938.78;5052574;28;1910;-60
2024/01/27 12:40:58;;;;;;;;;;;;;;;7.62;53.67;95924.06;5052463;28;1225;-60
2024/01/27 12:43:24;;;;;;;;;;;;;;;7.96;53.51;95934.66;5052389;28;1260;-60
2024/01/27 12:45:50;;;;;;;;;;;;;;;7.90;53.43;95932.50;5052578;28;1283;-60
2024/01/27 12:48:16;;;;;;;;;;;;;;;7.96;53.38;95931.97;5052226;28;1221;-60
2024/01/27 12:50:42;;;;;;;;;;;;;;;7.92;53.32;95930.56;5052559;28;1236;-59
2024/01/27 12:53:08;;;;;;;;;;;;;;;8.20;54.03;95914.97;5052325;28;1252;-60
2024/01/27 12:55:34;;;;;;;;;;;;;;;8.29;54.21;95914.19;5052474;28;1232;-60
2024/01/27 12:58:00;;;;;;;;;;;;;;;8.36;54.60;95906.53;5052182;28;1919;-59
2024/01/27 13:00:26;;;;;;;;;;;;;;;8.31;54.46;95917.56;5052174;28;1212;-59
2024/01/27 13:02:52;;;;;;;;;;;;;;;8.18;55.00;95908.91;5052417;28;1212;-60
2024/01/27 13:05:19;;;;;;;;;;;;;;;8.15;54.47;95899.34;5052411;28;1208;-60
2024/01/27 13:07:45;;;;;;;;;;;;;;;8.23;52.50;95912.03;5052668;28;1248;-60
2024/01/27 13:10:11;;;;;;;;;;;;;;;8.06;53.41;95916.09;5052892;28;913;-60
2024/01/27 13:12:38;;;;;;;;;;;;;;;8.09;54.20;95910.50;5056428;28;1082;-59
2024/01/27 13:15:04;;;;;;;;;;;;;;;8.08;52.33;95916.84;5056489;28;1104;-59
2024/01/27 13:17:31;;;;;;;;;;;;;;;7.91;51.14;95926.22;5054887;28;1909;-59
2024/01/27 13:19:57;;;;;;;;;;;;;;;7.79;50.63;95929.84;5036763;28;1057;-60
2024/01/27 13:22:24;;;;;;;;;;;;;;;7.79;50.60;95930.69;5036314;28;1108;-59
2024/01/27 13:24:51;;;;;;;;;;;;;;;7.69;50.75;95934.25;5036448;28;1032;-58
2024/01/27 13:27:17;;;;;;;;;;;;;;;7.75;50.72;95942.56;5036472;28;982;-59
2024/01/27 13:29:45;;;;;;;;;;;;;;;7.75;50.82;95942.56;5036186;28;1033;-59